sensor_id;sensor_type;location;lat;lon;timestamp;temperature;humidity
54409;DHT22;40315;48.620;9.828;2023-11-21T02:14:08;7.40;99.90
54409;DHT22;40315;48.620;9.828;2023-11-21T02:16:35;7.40;99.90
54409;DHT22;40315;48.620;9.828;2023-11-21T02:19:02;7.60;99.90
54409;DHT22;40315;48.620;9.828;2023-11-21T02:26:27;7.40;99.90
54409;DHT22;40315;48.620;9.828;2023-11-21T02:28:54;7.20;99.90
54409;DHT22;40315;48.620;9.828;2023-11-21T02:31:23;7.00;99.90
54409;DHT22;40315;48.620;9.828;2023-11-21T02:38:47;6.70;99.90
54409;DHT22;40315;48.620;9.828;2023-11-21T02:46:10;6.70;99.90
54409;DHT22;40315;48.620;9.828;2023-11-21T02:48:39;6.70;99.90
54409;DHT22;40315;48.620;9.828;2023-11-21T02:51:06;6.80;99.90
54409;DHT22;40315;48.620;9.828;2023-11-21T02:56:01;6.70;99.90
54409;DHT22;40315;48.620;9.828;2023-11-21T03:03:24;6.70;99.90
54409;DHT22;40315;48.620;9.828;2023-11-21T03:05:51;6.80;99.90
54409;DHT22;40315;48.620;9.828;2023-11-21T03:08:18;6.90;99.90
54409;DHT22;40315;48.620;9.828;2023-11-21T03:10:45;6.80;99.90
54409;DHT22;40315;48.620;9.828;2023-11-21T03:13:12;6.80;99.90
54409;DHT22;40315;48.620;9.828;2023-11-21T03:18:08;6.70;99.90
54409;DHT22;40315;48.620;9.828;2023-11-21T03:20:35;6.70;99.90
54409;DHT22;40315;48.620;9.828;2023-11-21T03:23:02;6.70;99.90
54409;DHT22;40315;48.620;9.828;2023-11-21T03:25:30;5.40;99.90
54409;DHT22;40315;48.620;9.828;2023-11-21T03:27:57;6.70;99.90
54409;DHT22;40315;48.620;9.828;2023-11-21T03:30:24;6.70;99.90
54409;DHT22;40315;48.620;9.828;2023-11-21T03:35:22;6.80;99.90
54409;DHT22;40315;48.620;9.828;2023-11-21T03:40:17;7.10;99.90
54409;DHT22;40315;48.620;9.828;2023-11-21T03:42:46;7.00;99.90
54409;DHT22;40315;48.620;9.828;2023-11-21T03:45:16;7.10;99.90
54409;DHT22;40315;48.620;9.828;2023-11-21T03:47:44;7.20;99.90
54409;DHT22;40315;48.620;9.828;2023-11-21T03:52:39;7.10;99.90
54409;DHT22;40315;48.620;9.828;2023-11-21T03:55:07;7.00;99.90
54409;DHT22;40315;48.620;9.828;2023-11-21T03:57:34;7.00;99.90
54409;DHT22;40315;48.620;9.828;2023-11-21T04:00:01;7.00;99.90
54409;DHT22;40315;48.620;9.828;2023-11-21T04:02:37;6.90;99.90
54409;DHT22;40315;48.620;9.828;2023-11-21T04:10:03;6.80;99.90
54409;DHT22;40315;48.620;9.828;2023-11-21T04:15:00;7.10;99.90
54409;DHT22;40315;48.620;9.828;2023-11-21T04:17:27;7.10;99.90
54409;DHT22;40315;48.620;9.828;2023-11-21T04:27:17;7.00;99.90
54409;DHT22;40315;48.620;9.828;2023-11-21T04:29:44;7.00;99.90
54409;DHT22;40315;48.620;9.828;2023-11-21T04:32:13;7.00;99.90
54409;DHT22;40315;48.620;9.828;2023-11-21T04:34:40;7.10;99.90
54409;DHT22;40315;48.620;9.828;2023-11-21T04:37:07;7.10;99.90
54409;DHT22;40315;48.620;9.828;2023-11-21T04:44:32;6.90;99.90
54409;DHT22;40315;48.620;9.828;2023-11-21T04:46:59;6.90;99.90
54409;DHT22;40315;48.620;9.828;2023-11-21T04:49:27;6.80;99.90
54409;DHT22;40315;48.620;9.828;2023-11-21T04:51:54;6.80;99.90
54409;DHT22;40315;48.620;9.828;2023-11-21T04:54:21;6.80;99.90
54409;DHT22;40315;48.620;9.828;2023-11-21T04:56:48;6.90;99.90
54409;DHT22;40315;48.620;9.828;2023-11-21T05:01:44;6.90;99.90
54409;DHT22;40315;48.620;9.828;2023-11-21T05:04:11;6.80;99.90
54409;DHT22;40315;48.620;9.828;2023-11-21T05:06:40;6.80;99.90
54409;DHT22;40315;48.620;9.828;2023-11-21T05:11:37;6.80;99.90
54409;DHT22;40315;48.620;9.828;2023-11-21T05:14:06;6.80;99.90
54409;DHT22;40315;48.620;9.828;2023-11-21T05:19:03;6.90;99.90
54409;DHT22;40315;48.620;9.828;2023-11-21T05:26:27;6.90;99.90
54409;DHT22;40315;48.620;9.828;2023-11-21T05:28:54;6.90;99.90
54409;DHT22;40315;48.620;9.828;2023-11-21T05:33:50;7.10;99.90
54409;DHT22;40315;48.620;9.828;2023-11-21T05:36:17;7.10;99.90
54409;DHT22;40315;48.620;9.828;2023-11-21T05:38:43;7.00;99.90
54409;DHT22;40315;48.620;9.828;2023-11-21T05:41:11;7.00;99.90
54409;DHT22;40315;48.620;9.828;2023-11-21T05:43:39;7.00;99.90
54409;DHT22;40315;48.620;9.828;2023-11-21T05:46:06;7.00;99.90
54409;DHT22;40315;48.620;9.828;2023-11-21T05:48:34;7.10;99.90
54409;DHT22;40315;48.620;9.828;2023-11-21T05:51:04;7.00;99.90
54409;DHT22;40315;48.620;9.828;2023-11-21T05:53:31;7.10;99.90
54409;DHT22;40315;48.620;9.828;2023-11-21T05:55:58;7.10;99.90
54409;DHT22;40315;48.620;9.828;2023-11-21T05:58:25;7.00;99.90
54409;DHT22;40315;48.620;9.828;2023-11-21T06:00:52;6.90;99.90
54409;DHT22;40315;48.620;9.828;2023-11-21T06:03:19;6.90;99.90
54409;DHT22;40315;48.620;9.828;2023-11-21T06:05:46;6.90;99.90
54409;DHT22;40315;48.620;9.828;2023-11-21T06:08:15;7.00;99.90
54409;DHT22;40315;48.620;9.828;2023-11-21T06:10:43;7.00;99.90
54409;DHT22;40315;48.620;9.828;2023-11-21T06:13:10;7.00;99.90
54409;DHT22;40315;48.620;9.828;2023-11-21T06:15:37;7.10;99.90
54409;DHT22;40315;48.620;9.828;2023-11-21T06:18:04;7.30;99.90
54409;DHT22;40315;48.620;9.828;2023-11-21T06:20:35;7.00;99.90
54409;DHT22;40315;48.620;9.828;2023-11-21T06:23:03;7.30;99.90
54409;DHT22;40315;48.620;9.828;2023-11-21T06:28:02;7.40;99.90
54409;DHT22;40315;48.620;9.828;2023-11-21T06:32:56;7.20;99.90
54409;DHT22;40315;48.620;9.828;2023-11-21T06:35:23;7.20;99.90
54409;DHT22;40315;48.620;9.828;2023-11-21T06:37:50;7.30;99.90
54409;DHT22;40315;48.620;9.828;2023-11-21T06:45:14;7.40;99.90
54409;DHT22;40315;48.620;9.828;2023-11-21T06:55:03;7.40;99.90
54409;DHT22;40315;48.620;9.828;2023-11-21T06:57:32;7.40;99.90
54409;DHT22;40315;48.620;9.828;2023-11-21T07:04:56;7.10;99.90
54409;DHT22;40315;48.620;9.828;2023-11-21T07:07:23;7.10;99.90
54409;DHT22;40315;48.620;9.828;2023-11-21T07:09:52;7.30;99.90
54409;DHT22;40315;48.620;9.828;2023-11-21T07:12:19;6.90;99.90
54409;DHT22;40315;48.620;9.828;2023-11-21T07:14:49;6.90;99.90
54409;DHT22;40315;48.620;9.828;2023-11-21T07:19:44;7.00;99.90
54409;DHT22;40315;48.620;9.828;2023-11-21T07:22:11;6.90;99.90
54409;DHT22;40315;48.620;9.828;2023-11-21T07:24:39;6.90;99.90
54409;DHT22;40315;48.620;9.828;2023-11-21T07:27:06;6.90;99.90
54409;DHT22;40315;48.620;9.828;2023-11-21T07:29:35;7.00;99.90
54409;DHT22;40315;48.620;9.828;2023-11-21T07:32:03;7.00;99.90
54409;DHT22;40315;48.620;9.828;2023-11-21T07:36:58;7.20;99.90
54409;DHT22;40315;48.620;9.828;2023-11-21T07:39:25;7.30;99.90
54409;DHT22;40315;48.620;9.828;2023-11-21T07:49:17;7.40;99.90
54409;DHT22;40315;48.620;9.828;2023-11-21T07:54:14;7.40;99.90
54409;DHT22;40315;48.620;9.828;2023-11-21T07:56:41;7.30;99.90
54409;DHT22;40315;48.620;9.828;2023-11-21T07:59:09;7.20;99.90
54409;DHT22;40315;48.620;9.828;2023-11-21T08:01:36;7.20;99.90
54409;DHT22;40315;48.620;9.828;2023-11-21T08:06:32;7.20;99.90
54409;DHT22;40315;48.620;9.828;2023-11-21T08:09:00;7.20;99.90
54409;DHT22;40315;48.620;9.828;2023-11-21T08:11:27;7.30;99.90
54409;DHT22;40315;48.620;9.828;2023-11-21T08:13:56;7.30;99.90
54409;DHT22;40315;48.620;9.828;2023-11-21T08:26:22;7.90;99.90
54409;DHT22;40315;48.620;9.828;2023-11-21T08:31:23;7.90;99.90
54409;DHT22;40315;48.620;9.828;2023-11-21T08:38:44;8.00;99.90
54409;DHT22;40315;48.620;9.828;2023-11-21T08:41:11;8.20;99.90
54409;DHT22;40315;48.620;9.828;2023-11-21T08:46:09;8.40;99.90
54409;DHT22;40315;48.620;9.828;2023-11-21T08:48:36;8.40;99.90
54409;DHT22;40315;48.620;9.828;2023-11-21T08:51:04;8.30;99.90
54409;DHT22;40315;48.620;9.828;2023-11-21T08:53:31;8.20;99.90
54409;DHT22;40315;48.620;9.828;2023-11-21T08:58:29;8.30;99.90
54409;DHT22;40315;48.620;9.828;2023-11-21T09:03:25;8.40;99.90
54409;DHT22;40315;48.620;9.828;2023-11-21T09:05:52;8.40;99.90
54409;DHT22;40315;48.620;9.828;2023-11-21T09:08:19;8.50;99.90
54409;DHT22;40315;48.620;9.828;2023-11-21T09:10:47;8.50;99.90
54409;DHT22;40315;48.620;9.828;2023-11-21T09:13:14;8.60;99.90
54409;DHT22;40315;48.620;9.828;2023-11-21T09:15:42;8.80;99.90
54409;DHT22;40315;48.620;9.828;2023-11-21T09:20:40;9.00;99.90
54409;DHT22;40315;48.620;9.828;2023-11-21T09:23:08;8.70;99.90
54409;DHT22;40315;48.620;9.828;2023-11-21T09:25:35;9.10;99.90
54409;DHT22;40315;48.620;9.828;2023-11-21T09:30:35;9.00;99.90
54409;DHT22;40315;48.620;9.828;2023-11-21T09:40:31;9.00;99.90
54409;DHT22;40315;48.620;9.828;2023-11-21T09:45:26;9.00;99.90
54409;DHT22;40315;48.620;9.828;2023-11-21T09:47:55;9.10;99.90
54409;DHT22;40315;48.620;9.828;2023-11-21T09:50:23;8.70;99.90
54409;DHT22;40315;48.620;9.828;2023-11-21T09:52:55;8.30;99.90
54409;DHT22;40315;48.620;9.828;2023-11-21T09:55:28;8.20;99.90
54409;DHT22;40315;48.620;9.828;2023-11-21T10:00:27;8.30;99.90
54409;DHT22;40315;48.620;9.828;2023-11-21T10:07:53;8.20;99.90
54409;DHT22;40315;48.620;9.828;2023-11-21T10:10:23;8.00;99.90
54409;DHT22;40315;48.620;9.828;2023-11-21T10:12:55;7.90;99.90
54409;DHT22;40315;48.620;9.828;2023-11-21T10:15:23;8.10;99.90
54409;DHT22;40315;48.620;9.828;2023-11-21T10:17:53;8.10;99.90
54409;DHT22;40315;48.620;9.828;2023-11-21T10:22:48;7.80;99.90
54409;DHT22;40315;48.620;9.828;2023-11-21T10:25:17;7.80;99.90
54409;DHT22;40315;48.620;9.828;2023-11-21T10:27:49;7.70;99.90
54409;DHT22;40315;48.620;9.828;2023-11-21T10:30:17;7.70;99.90
54409;DHT22;40315;48.620;9.828;2023-11-21T10:32:44;7.70;99.90
54409;DHT22;40315;48.620;9.828;2023-11-21T10:35:12;7.80;99.90
54409;DHT22;40315;48.620;9.828;2023-11-21T10:37:39;7.90;99.90
54409;DHT22;40315;48.620;9.828;2023-11-21T10:40:08;8.00;99.90
54409;DHT22;40315;48.620;9.828;2023-11-21T10:45:06;8.10;99.90
54409;DHT22;40315;48.620;9.828;2023-11-21T10:47:38;8.10;99.90
54409;DHT22;40315;48.620;9.828;2023-11-21T10:50:05;8.20;99.90
54409;DHT22;40315;48.620;9.828;2023-11-21T10:52:39;8.20;99.90
54409;DHT22;40315;48.620;9.828;2023-11-21T10:55:21;8.20;99.90
54409;DHT22;40315;48.620;9.828;2023-11-21T10:57:53;8.20;99.90
54409;DHT22;40315;48.620;9.828;2023-11-21T11:00:21;8.20;99.90
54409;DHT22;40315;48.620;9.828;2023-11-21T11:02:51;8.30;99.90
54409;DHT22;40315;48.620;9.828;2023-11-21T11:05:20;8.20;99.90
54409;DHT22;40315;48.620;9.828;2023-11-21T11:07:51;8.00;99.90
54409;DHT22;40315;48.620;9.828;2023-11-21T11:10:20;8.00;99.90
54409;DHT22;40315;48.620;9.828;2023-11-21T11:12:48;7.90;99.90
54409;DHT22;40315;48.620;9.828;2023-11-21T11:17:48;7.80;99.90
54409;DHT22;40315;48.620;9.828;2023-11-21T11:20:17;7.70;99.90
54409;DHT22;40315;48.620;9.828;2023-11-21T11:22:55;7.70;99.90
54409;DHT22;40315;48.620;9.828;2023-11-21T11:25:52;9.10;99.90
54409;DHT22;40315;48.620;9.828;2023-11-21T11:28:26;7.80;99.90
54409;DHT22;40315;48.620;9.828;2023-11-21T11:31:03;7.70;99.90
54409;DHT22;40315;48.620;9.828;2023-11-21T11:33:36;7.70;99.90
54409;DHT22;40315;48.620;9.828;2023-11-21T11:36:08;7.70;99.90
54409;DHT22;40315;48.620;9.828;2023-11-21T11:41:06;7.90;99.90
54409;DHT22;40315;48.620;9.828;2023-11-21T11:48:40;8.10;99.90
54409;DHT22;40315;48.620;9.828;2023-11-21T11:51:10;8.00;99.90
54409;DHT22;40315;48.620;9.828;2023-11-21T11:53:40;8.10;99.90
54409;DHT22;40315;48.620;9.828;2023-11-21T11:56:28;8.10;99.90
54409;DHT22;40315;48.620;9.828;2023-11-21T11:58:57;8.30;99.90
54409;DHT22;40315;48.620;9.828;2023-11-21T12:01:27;8.40;99.90
54409;DHT22;40315;48.620;9.828;2023-11-21T12:04:23;8.80;99.90
54409;DHT22;40315;48.620;9.828;2023-11-21T12:07:02;8.80;99.90
54409;DHT22;40315;48.620;9.828;2023-11-21T12:09:31;9.00;99.90
54409;DHT22;40315;48.620;9.828;2023-11-21T12:11:58;9.00;99.90
54409;DHT22;40315;48.620;9.828;2023-11-21T12:14:26;9.20;99.90
54409;DHT22;40315;48.620;9.828;2023-11-21T12:21:52;8.80;99.90
54409;DHT22;40315;48.620;9.828;2023-11-21T12:24:21;8.80;99.90
54409;DHT22;40315;48.620;9.828;2023-11-21T12:26:51;8.90;99.90
54409;DHT22;40315;48.620;9.828;2023-11-21T12:29:21;8.80;99.90
54409;DHT22;40315;48.620;9.828;2023-11-21T12:31:49;8.90;99.90
54409;DHT22;40315;48.620;9.828;2023-11-21T12:34:18;9.00;99.90
54409;DHT22;40315;48.620;9.828;2023-11-21T12:36:45;9.00;99.90
54409;DHT22;40315;48.620;9.828;2023-11-21T12:39:12;8.80;99.90
54409;DHT22;40315;48.620;9.828;2023-11-21T12:41:40;9.10;99.90
54409;DHT22;40315;48.620;9.828;2023-11-21T12:44:12;8.80;99.90
54409;DHT22;40315;48.620;9.828;2023-11-21T12:46:42;8.80;99.90
54409;DHT22;40315;48.620;9.828;2023-11-21T12:49:11;9.60;99.90
54409;DHT22;40315;48.620;9.828;2023-11-21T12:51:44;9.00;99.90
54409;DHT22;40315;48.620;9.828;2023-11-21T12:54:12;9.00;99.90
54409;DHT22;40315;48.620;9.828;2023-11-21T12:56:41;8.80;99.90
54409;DHT22;40315;48.620;9.828;2023-11-21T13:01:42;8.90;99.90
54409;DHT22;40315;48.620;9.828;2023-11-21T13:04:09;8.90;99.90
54409;DHT22;40315;48.620;9.828;2023-11-21T13:06:37;9.10;99.90
54409;DHT22;40315;48.620;9.828;2023-11-21T13:11:36;8.70;99.90
54409;DHT22;40315;48.620;9.828;2023-11-21T13:16:33;8.90;99.90
54409;DHT22;40315;48.620;9.828;2023-11-21T13:19:00;8.90;99.90
54409;DHT22;40315;48.620;9.828;2023-11-21T13:21:28;9.00;99.90
54409;DHT22;40315;48.620;9.828;2023-11-21T13:23:56;8.90;99.90
54409;DHT22;40315;48.620;9.828;2023-11-21T13:28:54;8.80;99.90
54409;DHT22;40315;48.620;9.828;2023-11-21T13:31:21;8.80;99.90
54409;DHT22;40315;48.620;9.828;2023-11-21T13:38:56;8.70;99.90
54409;DHT22;40315;48.620;9.828;2023-11-21T13:43:58;8.70;99.90
54409;DHT22;40315;48.620;9.828;2023-11-21T13:46:34;8.60;99.90
54409;DHT22;40315;48.620;9.828;2023-11-21T13:49:03;8.50;99.90
54409;DHT22;40315;48.620;9.828;2023-11-21T13:51:35;8.60;99.90
54409;DHT22;40315;48.620;9.828;2023-11-21T13:54:06;8.60;99.90
54409;DHT22;40315;48.620;9.828;2023-11-21T13:56:36;8.60;99.90
54409;DHT22;40315;48.620;9.828;2023-11-21T13:59:07;8.60;99.90
54409;DHT22;40315;48.620;9.828;2023-11-21T14:01:48;8.60;99.90
54409;DHT22;40315;48.620;9.828;2023-11-21T14:04:23;8.50;99.90
54409;DHT22;40315;48.620;9.828;2023-11-21T14:07:20;8.50;99.90
54409;DHT22;40315;48.620;9.828;2023-11-21T14:10:00;8.50;99.90
54409;DHT22;40315;48.620;9.828;2023-11-21T14:12:30;8.40;99.90
54409;DHT22;40315;48.620;9.828;2023-11-21T14:15:00;8.40;99.90
54409;DHT22;40315;48.620;9.828;2023-11-21T14:17:28;8.30;99.90
54409;DHT22;40315;48.620;9.828;2023-11-21T14:19:55;8.20;99.90
54409;DHT22;40315;48.620;9.828;2023-11-21T14:22:22;8.30;99.90
54409;DHT22;40315;48.620;9.828;2023-11-21T14:24:51;8.20;99.90
54409;DHT22;40315;48.620;9.828;2023-11-21T14:27:20;8.20;99.90
54409;DHT22;40315;48.620;9.828;2023-11-21T14:29:49;8.10;99.90
54409;DHT22;40315;48.620;9.828;2023-11-21T14:32:16;8.10;99.90
54409;DHT22;40315;48.620;9.828;2023-11-21T14:34:43;8.10;99.90
54409;DHT22;40315;48.620;9.828;2023-11-21T14:37:13;8.20;99.90
54409;DHT22;40315;48.620;9.828;2023-11-21T14:39:40;8.10;99.90
54409;DHT22;40315;48.620;9.828;2023-11-21T14:42:10;8.10;99.90
54409;DHT22;40315;48.620;9.828;2023-11-21T14:44:40;8.10;99.90
54409;DHT22;40315;48.620;9.828;2023-11-21T14:49:41;8.20;99.90
54409;DHT22;40315;48.620;9.828;2023-11-21T14:52:18;8.30;99.90
54409;DHT22;40315;48.620;9.828;2023-11-21T14:54:58;8.20;99.90
54409;DHT22;40315;48.620;9.828;2023-11-21T14:57:45;8.20;99.90
54409;DHT22;40315;48.620;9.828;2023-11-21T15:00:18;8.20;99.90
54409;DHT22;40315;48.620;9.828;2023-11-21T15:03:05;8.20;99.90
54409;DHT22;40315;48.620;9.828;2023-11-21T15:05:32;8.00;99.90
54409;DHT22;40315;48.620;9.828;2023-11-21T15:08:01;7.90;99.90
54409;DHT22;40315;48.620;9.828;2023-11-21T15:10:44;7.80;99.90
54409;DHT22;40315;48.620;9.828;2023-11-21T15:13:12;7.90;99.90
54409;DHT22;40315;48.620;9.828;2023-11-21T15:15:42;8.10;99.90
54409;DHT22;40315;48.620;9.828;2023-11-21T15:18:11;7.90;99.90
54409;DHT22;40315;48.620;9.828;2023-11-21T15:20:41;7.90;99.90
54409;DHT22;40315;48.620;9.828;2023-11-21T15:28:06;8.20;99.90
54409;DHT22;40315;48.620;9.828;2023-11-21T15:30:33;8.20;99.90
54409;DHT22;40315;48.620;9.828;2023-11-21T15:33:01;8.30;99.90
54409;DHT22;40315;48.620;9.828;2023-11-21T15:37:58;8.50;99.90
54409;DHT22;40315;48.620;9.828;2023-11-21T15:40:25;8.50;99.90
54409;DHT22;40315;48.620;9.828;2023-11-21T15:42:52;8.50;99.90
54409;DHT22;40315;48.620;9.828;2023-11-21T15:45:19;8.90;99.90
54409;DHT22;40315;48.620;9.828;2023-11-21T15:47:49;8.40;99.90
54409;DHT22;40315;48.620;9.828;2023-11-21T15:50:16;8.70;99.90
54409;DHT22;40315;48.620;9.828;2023-11-21T15:52:46;8.60;99.90
54409;DHT22;40315;48.620;9.828;2023-11-21T15:55:13;10.40;99.90
54409;DHT22;40315;48.620;9.828;2023-11-21T15:57:40;8.20;99.90
54409;DHT22;40315;48.620;9.828;2023-11-21T16:00:09;8.30;99.90
54409;DHT22;40315;48.620;9.828;2023-11-21T16:02:42;8.30;99.90
54409;DHT22;40315;48.620;9.828;2023-11-21T16:05:10;8.30;99.90
54409;DHT22;40315;48.620;9.828;2023-11-21T16:07:41;8.40;99.90
54409;DHT22;40315;48.620;9.828;2023-11-21T16:12:42;8.10;99.90
54409;DHT22;40315;48.620;9.828;2023-11-21T16:15:11;8.00;99.90
54409;DHT22;40315;48.620;9.828;2023-11-21T16:17:38;8.00;99.90
54409;DHT22;40315;48.620;9.828;2023-11-21T16:20:07;8.00;99.90
54409;DHT22;40315;48.620;9.828;2023-11-21T16:25:07;8.20;99.90
54409;DHT22;40315;48.620;9.828;2023-11-21T16:30:07;8.20;99.90
54409;DHT22;40315;48.620;9.828;2023-11-21T16:32:35;8.30;99.90
54409;DHT22;40315;48.620;9.828;2023-11-21T16:35:03;8.30;99.90
54409;DHT22;40315;48.620;9.828;2023-11-21T16:37:30;8.20;99.90
54409;DHT22;40315;48.620;9.828;2023-11-21T16:39:58;8.20;99.90
54409;DHT22;40315;48.620;9.828;2023-11-21T16:42:25;8.20;99.90
54409;DHT22;40315;48.620;9.828;2023-11-21T16:44:55;8.60;99.90
54409;DHT22;40315;48.620;9.828;2023-11-21T16:47:22;8.10;99.90
54409;DHT22;40315;48.620;9.828;2023-11-21T16:49:53;8.10;99.90
54409;DHT22;40315;48.620;9.828;2023-11-21T16:52:20;8.20;99.90
54409;DHT22;40315;48.620;9.828;2023-11-21T16:54:48;8.20;99.90
54409;DHT22;40315;48.620;9.828;2023-11-21T16:57:16;8.30;99.90
54409;DHT22;40315;48.620;9.828;2023-11-21T16:59:43;8.00;99.90
54409;DHT22;40315;48.620;9.828;2023-11-21T17:02:17;8.00;99.90
54409;DHT22;40315;48.620;9.828;2023-11-21T17:07:14;8.00;99.90
54409;DHT22;40315;48.620;9.828;2023-11-21T17:09:41;7.90;99.90
54409;DHT22;40315;48.620;9.828;2023-11-21T17:12:08;7.90;99.90
54409;DHT22;40315;48.620;9.828;2023-11-21T17:14:35;7.90;99.90
54409;DHT22;40315;48.620;9.828;2023-11-21T17:17:05;8.00;99.90
54409;DHT22;40315;48.620;9.828;2023-11-21T17:22:07;8.00;99.90
54409;DHT22;40315;48.620;9.828;2023-11-21T17:24:36;8.00;99.90
54409;DHT22;40315;48.620;9.828;2023-11-21T17:27:04;7.80;99.90
54409;DHT22;40315;48.620;9.828;2023-11-21T17:29:31;8.00;99.90
54409;DHT22;40315;48.620;9.828;2023-11-21T17:31:58;8.10;99.90
54409;DHT22;40315;48.620;9.828;2023-11-21T17:34:25;8.20;99.90
54409;DHT22;40315;48.620;9.828;2023-11-21T17:36:54;8.30;99.90
54409;DHT22;40315;48.620;9.828;2023-11-21T17:39:24;8.40;99.90
54409;DHT22;40315;48.620;9.828;2023-11-21T17:41:54;8.40;99.90
54409;DHT22;40315;48.620;9.828;2023-11-21T17:44:23;8.40;99.90
54409;DHT22;40315;48.620;9.828;2023-11-21T17:46:50;8.40;99.90
54409;DHT22;40315;48.620;9.828;2023-11-21T17:49:18;8.50;99.90
54409;DHT22;40315;48.620;9.828;2023-11-21T17:51:45;8.40;99.90
54409;DHT22;40315;48.620;9.828;2023-11-21T17:54:14;8.40;99.90
54409;DHT22;40315;48.620;9.828;2023-11-21T17:56:41;8.10;99.90
54409;DHT22;40315;48.620;9.828;2023-11-21T17:59:10;7.90;99.90
54409;DHT22;40315;48.620;9.828;2023-11-21T18:01:42;7.90;99.90
54409;DHT22;40315;48.620;9.828;2023-11-21T18:04:09;7.90;99.90
54409;DHT22;40315;48.620;9.828;2023-11-21T18:06:39;8.00;99.90
54409;DHT22;40315;48.620;9.828;2023-11-21T18:09:10;8.10;99.90
54409;DHT22;40315;48.620;9.828;2023-11-21T18:11:39;8.20;99.90
54409;DHT22;40315;48.620;9.828;2023-11-21T18:14:06;8.20;99.90
54409;DHT22;40315;48.620;9.828;2023-11-21T18:16:35;8.20;99.90
54409;DHT22;40315;48.620;9.828;2023-11-21T18:19:03;8.10;99.90
54409;DHT22;40315;48.620;9.828;2023-11-21T18:21:31;8.00;99.90
54409;DHT22;40315;48.620;9.828;2023-11-21T18:24:00;7.90;99.90
54409;DHT22;40315;48.620;9.828;2023-11-21T18:26:28;7.90;99.90
54409;DHT22;40315;48.620;9.828;2023-11-21T18:28:56;8.00;99.90
54409;DHT22;40315;48.620;9.828;2023-11-21T18:31:25;8.00;99.90
54409;DHT22;40315;48.620;9.828;2023-11-21T18:33:54;8.10;99.90
54409;DHT22;40315;48.620;9.828;2023-11-21T18:36:22;8.20;99.90
54409;DHT22;40315;48.620;9.828;2023-11-21T18:38:49;8.10;99.90
54409;DHT22;40315;48.620;9.828;2023-11-21T18:41:20;8.20;99.90
54409;DHT22;40315;48.620;9.828;2023-11-21T18:43:48;8.20;99.90
54409;DHT22;40315;48.620;9.828;2023-11-21T18:46:16;8.10;99.90
54409;DHT22;40315;48.620;9.828;2023-11-21T18:48:44;8.00;99.90
54409;DHT22;40315;48.620;9.828;2023-11-21T18:51:16;8.10;99.90
54409;DHT22;40315;48.620;9.828;2023-11-21T18:53:43;7.70;99.90
54409;DHT22;40315;48.620;9.828;2023-11-21T18:56:18;7.70;99.90
54409;DHT22;40315;48.620;9.828;2023-11-21T18:58:47;7.70;99.90
54409;DHT22;40315;48.620;9.828;2023-11-21T19:01:25;7.80;99.90
54409;DHT22;40315;48.620;9.828;2023-11-21T19:03:53;7.80;99.90
54409;DHT22;40315;48.620;9.828;2023-11-21T19:06:21;7.80;99.90
54409;DHT22;40315;48.620;9.828;2023-11-21T19:08:48;7.70;99.90
54409;DHT22;40315;48.620;9.828;2023-11-21T19:11:16;7.60;99.90
54409;DHT22;40315;48.620;9.828;2023-11-21T19:13:43;7.40;99.90
54409;DHT22;40315;48.620;9.828;2023-11-21T19:16:12;7.40;99.90
54409;DHT22;40315;48.620;9.828;2023-11-21T19:18:42;7.50;99.90
54409;DHT22;40315;48.620;9.828;2023-11-21T19:21:13;7.30;99.90
54409;DHT22;40315;48.620;9.828;2023-11-21T19:23:41;7.30;99.90
54409;DHT22;40315;48.620;9.828;2023-11-21T19:26:09;7.30;99.90
54409;DHT22;40315;48.620;9.828;2023-11-21T19:28:36;7.30;99.90
54409;DHT22;40315;48.620;9.828;2023-11-21T19:31:03;7.20;99.90
54409;DHT22;40315;48.620;9.828;2023-11-21T19:33:30;7.20;99.90
54409;DHT22;40315;48.620;9.828;2023-11-21T19:36:00;7.20;99.90
54409;DHT22;40315;48.620;9.828;2023-11-21T19:38:27;7.10;99.90
54409;DHT22;40315;48.620;9.828;2023-11-21T19:40:56;7.80;99.90
54409;DHT22;40315;48.620;9.828;2023-11-21T19:43:24;7.00;99.90
54409;DHT22;40315;48.620;9.828;2023-11-21T19:45:51;7.00;99.90
54409;DHT22;40315;48.620;9.828;2023-11-21T19:48:18;7.00;99.90
54409;DHT22;40315;48.620;9.828;2023-11-21T19:50:48;7.00;99.90
54409;DHT22;40315;48.620;9.828;2023-11-21T19:53:17;7.00;99.90
54409;DHT22;40315;48.620;9.828;2023-11-21T19:55:44;6.90;99.90
54409;DHT22;40315;48.620;9.828;2023-11-21T19:58:11;6.90;99.90
54409;DHT22;40315;48.620;9.828;2023-11-21T20:00:44;7.00;99.90
54409;DHT22;40315;48.620;9.828;2023-11-21T20:03:11;7.00;99.90
54409;DHT22;40315;48.620;9.828;2023-11-21T20:05:38;6.90;99.90
54409;DHT22;40315;48.620;9.828;2023-11-21T20:08:05;7.00;99.90
54409;DHT22;40315;48.620;9.828;2023-11-21T20:10:34;6.90;99.90
54409;DHT22;40315;48.620;9.828;2023-11-21T20:13:01;6.90;99.90
54409;DHT22;40315;48.620;9.828;2023-11-21T20:17:55;6.90;99.90
54409;DHT22;40315;48.620;9.828;2023-11-21T20:22:52;7.00;99.90
54409;DHT22;40315;48.620;9.828;2023-11-21T20:25:20;7.00;99.90
54409;DHT22;40315;48.620;9.828;2023-11-21T20:27:49;7.00;99.90
54409;DHT22;40315;48.620;9.828;2023-11-21T20:30:17;6.90;99.90
54409;DHT22;40315;48.620;9.828;2023-11-21T20:32:46;6.90;99.90
54409;DHT22;40315;48.620;9.828;2023-11-21T20:35:14;6.90;99.90
54409;DHT22;40315;48.620;9.828;2023-11-21T20:37:41;6.90;99.90
54409;DHT22;40315;48.620;9.828;2023-11-21T20:40:09;6.90;99.90
54409;DHT22;40315;48.620;9.828;2023-11-21T20:42:36;6.80;99.90
54409;DHT22;40315;48.620;9.828;2023-11-21T20:45:09;6.80;99.90
54409;DHT22;40315;48.620;9.828;2023-11-21T20:47:39;6.80;99.90
54409;DHT22;40315;48.620;9.828;2023-11-21T20:50:07;6.80;99.90
54409;DHT22;40315;48.620;9.828;2023-11-21T20:52:35;6.80;99.90
54409;DHT22;40315;48.620;9.828;2023-11-21T20:55:05;6.80;99.90
54409;DHT22;40315;48.620;9.828;2023-11-21T20:57:34;6.80;99.90
54409;DHT22;40315;48.620;9.828;2023-11-21T21:00:03;6.80;99.90
54409;DHT22;40315;48.620;9.828;2023-11-21T21:02:37;6.80;99.90
54409;DHT22;40315;48.620;9.828;2023-11-21T21:05:08;6.80;99.90
54409;DHT22;40315;48.620;9.828;2023-11-21T21:07:36;6.80;99.90
54409;DHT22;40315;48.620;9.828;2023-11-21T21:10:03;6.80;99.90
54409;DHT22;40315;48.620;9.828;2023-11-21T21:12:30;6.80;99.90
54409;DHT22;40315;48.620;9.828;2023-11-21T21:17:28;6.80;99.90
54409;DHT22;40315;48.620;9.828;2023-11-21T21:19:59;6.80;99.90
54409;DHT22;40315;48.620;9.828;2023-11-21T21:22:26;6.80;99.90
54409;DHT22;40315;48.620;9.828;2023-11-21T21:24:54;6.90;99.90
54409;DHT22;40315;48.620;9.828;2023-11-21T21:27:21;6.90;99.90
54409;DHT22;40315;48.620;9.828;2023-11-21T21:29:48;6.80;99.90
54409;DHT22;40315;48.620;9.828;2023-11-21T21:32:15;6.70;99.90
54409;DHT22;40315;48.620;9.828;2023-11-21T21:34:42;6.70;99.90
54409;DHT22;40315;48.620;9.828;2023-11-21T21:37:11;6.70;99.90
54409;DHT22;40315;48.620;9.828;2023-11-21T21:39:40;6.70;99.90
54409;DHT22;40315;48.620;9.828;2023-11-21T21:42:07;6.70;99.90
54409;DHT22;40315;48.620;9.828;2023-11-21T21:44:34;6.70;99.90
54409;DHT22;40315;48.620;9.828;2023-11-21T21:47:01;6.70;99.90
54409;DHT22;40315;48.620;9.828;2023-11-21T21:49:31;6.70;99.90